createdAt,value
2018-01-10T00:00:39.362Z,31.90
2018-01-10T00:02:41.193Z,30.50
2018-01-10T00:05:00.203Z,31.00
2018-01-10T00:09:37.283Z,33.50
2018-01-10T00:14:14.874Z,30.57
2018-01-10T00:16:15.880Z,34.80
2018-01-10T00:20:44.308Z,29.17
2018-01-10T00:22:45.647Z,34.00
2018-01-10T00:24:47.140Z,33.33
2018-01-10T00:26:56.233Z,35.17
2018-01-10T00:28:57.784Z,33.50
2018-01-10T00:33:34.844Z,32.13
2018-01-10T00:38:26.173Z,32.53
2018-01-10T00:45:55.751Z,29.30
2018-01-10T00:50:33.350Z,28.37
2018-01-10T00:52:34.388Z,31.17
2018-01-10T00:54:35.805Z,33.37
2018-01-10T00:56:43.998Z,31.53
2018-01-10T00:58:45.708Z,34.90
2018-01-10T01:00:55.178Z,33.70
2018-01-10T01:02:57.227Z,31.37
2018-01-10T01:07:47.161Z,32.20
2018-01-10T01:09:48.791Z,32.60
2018-01-10T01:12:15.598Z,34.63
2018-01-10T01:14:17.472Z,32.20
2018-01-10T01:16:20.744Z,32.03
2018-01-10T01:18:46.484Z,34.40
2018-01-10T01:23:22.332Z,33.43
2018-01-10T01:27:58.154Z,34.60
2018-01-10T01:30:06.554Z,31.23
2018-01-10T01:32:16.008Z,33.30
2018-01-10T01:36:48.669Z,30.27
2018-01-10T01:38:50.190Z,32.47
2018-01-10T01:41:18.982Z,33.27
2018-01-10T01:43:45.260Z,30.60
2018-01-10T01:45:46.312Z,30.90
2018-01-10T01:52:42.714Z,29.93
2018-01-10T02:04:45.247Z,26.30
2018-01-10T02:11:45.565Z,30.83
2018-01-10T02:13:48.049Z,33.40
2018-01-10T02:15:49.291Z,34.10
2018-01-10T02:18:16.099Z,31.33
2018-01-10T02:20:18.089Z,33.80
2018-01-10T02:27:23.837Z,31.23
2018-01-10T02:29:24.918Z,30.20
2018-01-10T02:33:55.396Z,30.27
2018-01-10T02:38:26.376Z,30.83
2018-01-10T02:42:55.142Z,30.60
2018-01-10T02:47:32.555Z,31.60
2018-01-10T02:52:11.399Z,30.83
2018-01-10T02:56:59.020Z,30.13
2018-01-10T03:01:28.780Z,31.87
2018-01-10T03:03:30.023Z,30.97
2018-01-10T03:10:27.275Z,31.97
2018-01-10T03:12:29.167Z,34.17
2018-01-10T03:14:31.427Z,30.63
2018-01-10T03:23:57.264Z,30.73
2018-01-10T03:25:59.641Z,31.70
2018-01-10T03:28:06.871Z,31.30
2018-01-10T03:30:12.199Z,29.77
2018-01-10T03:32:14.021Z,34.37
2018-01-10T03:39:30.194Z,32.67
2018-01-10T03:46:44.979Z,34.30
2018-01-10T03:53:46.015Z,30.07
2018-01-10T04:00:52.226Z,32.17
2018-01-10T04:05:34.078Z,32.80
2018-01-10T04:07:35.891Z,30.33
2018-01-10T04:09:37.941Z,29.47
2018-01-10T04:11:39.485Z,30.87
2018-01-10T04:23:34.167Z,28.00
2018-01-10T04:28:17.836Z,26.83
2018-01-10T04:30:34.120Z,31.63
2018-01-10T04:35:11.818Z,28.03
2018-01-10T04:37:12.978Z,28.83
2018-01-10T04:39:13.980Z,29.93
2018-01-10T04:41:21.008Z,28.60
2018-01-10T04:43:22.483Z,28.40
2018-01-10T04:45:23.539Z,29.53
2018-01-10T04:47:24.531Z,28.60
2018-01-10T04:56:50.291Z,31.80
2018-01-10T04:58:51.319Z,30.53
2018-01-10T05:00:52.296Z,31.80
2018-01-10T05:05:18.004Z,32.20
2018-01-10T05:09:46.466Z,30.10
2018-01-10T05:12:01.170Z,31.27
2018-01-10T05:16:29.891Z,30.63
2018-01-10T05:21:00.193Z,28.40
2018-01-10T05:23:01.206Z,31.17
2018-01-10T05:25:10.833Z,30.03
2018-01-10T05:27:11.956Z,28.73
2018-01-10T05:32:03.254Z,32.23
2018-01-10T05:36:41.364Z,29.17
2018-01-10T05:38:44.058Z,31.00
2018-01-10T05:40:46.058Z,31.83
2018-01-10T05:42:47.243Z,31.77
2018-01-10T05:47:30.981Z,29.80
2018-01-10T05:49:35.641Z,30.40
2018-01-10T05:51:36.728Z,30.30
2018-01-10T05:53:46.600Z,32.17
2018-01-10T05:58:25.908Z,29.20
2018-01-10T06:00:26.911Z,30.40
2018-01-10T06:02:28.053Z,29.90
2018-01-10T06:04:29.158Z,31.27
2018-01-10T06:06:30.219Z,28.67
2018-01-10T06:11:00.348Z,26.33
2018-01-10T06:13:01.587Z,26.80
2018-01-10T06:15:02.619Z,23.93
2018-01-10T06:17:03.610Z,23.67
2018-01-10T06:19:15.687Z,25.03
2018-01-10T06:21:34.756Z,21.97
2018-01-10T06:23:53.116Z,20.30
2018-01-10T06:25:54.079Z,22.37
2018-01-10T06:27:55.455Z,24.80
2018-01-10T06:30:03.558Z,24.60
2018-01-10T06:32:05.450Z,26.27
2018-01-10T06:34:24.087Z,26.87
2018-01-10T06:36:26.584Z,25.73
2018-01-10T06:41:17.965Z,26.17
2018-01-10T06:43:32.239Z,24.37
2018-01-10T06:45:51.176Z,28.30
2018-01-10T06:50:19.687Z,25.60
2018-01-10T06:52:20.770Z,27.40
2018-01-10T06:54:54.331Z,25.77
2018-01-10T06:56:55.435Z,23.33
2018-01-10T06:59:03.266Z,35.13
2018-01-10T07:06:01.521Z,28.00
2018-01-10T07:12:58.019Z,29.77
2018-01-10T07:14:58.987Z,28.67
2018-01-10T07:16:59.991Z,31.10
2018-01-10T07:19:01.002Z,27.30
2018-01-10T07:21:02.349Z,29.70
2018-01-10T07:25:26.468Z,29.67
2018-01-10T07:30:26.407Z,30.00
2018-01-10T07:35:20.411Z,26.83
2018-01-10T07:37:39.083Z,29.13
2018-01-10T07:39:40.128Z,25.80
2018-01-10T07:41:41.171Z,28.90
2018-01-10T07:44:07.614Z,30.17
2018-01-10T07:46:09.350Z,29.43
2018-01-10T07:53:16.646Z,29.03
2018-01-10T07:55:17.606Z,30.10
2018-01-10T07:57:18.655Z,29.00
2018-01-10T07:59:27.546Z,32.03
2018-01-10T08:01:30.774Z,29.77
2018-01-10T08:03:31.874Z,27.60
2018-01-10T08:05:32.857Z,29.90
2018-01-10T08:07:34.559Z,31.30
2018-01-10T08:09:35.627Z,29.30
2018-01-10T08:11:40.763Z,28.77
2018-01-10T08:13:43.385Z,29.33
2018-01-10T08:15:49.214Z,26.67
2018-01-10T08:17:51.242Z,29.77
2018-01-10T08:22:36.530Z,29.57
2018-01-10T08:24:37.521Z,28.17
2018-01-10T08:26:38.468Z,29.20
2018-01-10T08:28:39.444Z,29.70
2018-01-10T08:30:40.483Z,29.03
2018-01-10T08:32:41.846Z,29.03
2018-01-10T08:34:43.004Z,30.60
2018-01-10T08:36:44.734Z,32.93
2018-01-10T08:38:45.918Z,33.57
2018-01-10T08:40:47.046Z,31.20
2018-01-10T08:42:48.074Z,29.40
2018-01-10T08:44:49.047Z,31.07
2018-01-10T08:46:50.126Z,29.03
2018-01-10T08:48:51.091Z,30.63
2018-01-10T08:50:52.796Z,31.80
2018-01-10T08:52:56.437Z,27.17
2018-01-10T08:54:57.428Z,30.13
2018-01-10T08:56:58.378Z,28.70
2018-01-10T08:58:59.399Z,30.70
2018-01-10T09:01:02.054Z,31.50
2018-01-10T09:03:03.089Z,29.47
2018-01-10T09:05:04.145Z,30.47
2018-01-10T09:07:05.132Z,30.07
2018-01-10T09:09:06.095Z,29.63
2018-01-10T09:11:14.350Z,26.57
2018-01-10T09:13:15.446Z,29.77
2018-01-10T09:15:16.525Z,29.07
2018-01-10T09:17:17.541Z,29.03
2018-01-10T09:19:20.176Z,28.73
2018-01-10T09:21:21.277Z,27.87
2018-01-10T09:23:22.314Z,30.00
2018-01-10T09:25:24.750Z,29.47
2018-01-10T09:27:25.870Z,29.87
2018-01-10T09:29:28.352Z,29.20
2018-01-10T09:31:29.500Z,30.47
2018-01-10T09:33:30.686Z,27.43
2018-01-10T09:35:47.249Z,27.13
2018-01-10T09:37:48.339Z,26.70
2018-01-10T09:39:49.396Z,27.60
2018-01-10T09:41:51.112Z,45.33
2018-01-10T09:43:52.212Z,34.37
2018-01-10T09:45:53.960Z,29.23
2018-01-10T09:47:55.076Z,26.30
2018-01-10T09:49:56.048Z,28.83
2018-01-10T09:51:57.083Z,26.20
2018-01-10T09:53:58.043Z,25.40
2018-01-10T09:55:59.646Z,23.50
2018-01-10T09:58:00.671Z,21.70
2018-01-10T10:00:01.693Z,23.63
2018-01-10T10:02:03.500Z,24.47
2018-01-10T10:04:04.548Z,22.63
2018-01-10T10:06:05.582Z,21.70
2018-01-10T10:08:06.859Z,23.57
2018-01-10T10:10:08.396Z,23.70
2018-01-10T10:12:09.428Z,23.20
2018-01-10T10:14:10.755Z,22.53
2018-01-10T10:16:21.975Z,26.00
2018-01-10T10:20:51.659Z,23.50
2018-01-10T10:23:03.104Z,23.33
2018-01-10T10:25:21.148Z,22.10
2018-01-10T10:29:51.764Z,22.70
2018-01-10T10:31:52.758Z,21.47
2018-01-10T10:33:53.780Z,21.57
2018-01-10T10:35:55.475Z,21.20
2018-01-10T10:37:56.479Z,20.70
2018-01-10T10:39:57.522Z,21.20
2018-01-10T10:41:58.543Z,21.13
2018-01-10T10:43:59.505Z,21.60
2018-01-10T10:46:00.464Z,19.37
2018-01-10T10:48:01.476Z,19.93
2018-01-10T10:52:43.498Z,19.27
2018-01-10T10:54:44.487Z,20.90
2018-01-10T10:56:45.487Z,20.90
2018-01-10T11:01:12.370Z,19.70
2018-01-10T11:03:26.424Z,18.10
2018-01-10T11:07:53.808Z,17.73
2018-01-10T11:09:54.852Z,20.77
2018-01-10T11:11:55.829Z,20.07
2018-01-10T11:13:56.799Z,18.87
2018-01-10T11:15:57.819Z,16.60
2018-01-10T11:23:09.881Z,20.07
2018-01-10T11:25:19.425Z,20.40
2018-01-10T11:27:20.669Z,17.80
2018-01-10T11:29:21.685Z,21.23
2018-01-10T11:31:23.475Z,22.93
2018-01-10T11:33:27.402Z,22.60
2018-01-10T11:35:28.468Z,21.93
2018-01-10T11:37:29.419Z,19.67
2018-01-10T11:41:49.258Z,19.53
2018-01-10T11:43:50.229Z,17.73
2018-01-10T11:45:51.177Z,19.27
2018-01-10T11:47:52.128Z,21.00
2018-01-10T11:49:53.684Z,19.00
2018-01-10T11:51:54.663Z,18.90
2018-01-10T11:53:55.647Z,19.00
2018-01-10T11:55:56.933Z,19.70
2018-01-10T11:57:58.174Z,17.37
2018-01-10T11:59:59.196Z,18.67
2018-01-10T12:02:00.181Z,18.20
2018-01-10T12:04:01.506Z,17.40
2018-01-10T12:06:02.506Z,18.47
2018-01-10T12:08:04.946Z,17.80
2018-01-10T12:10:06.002Z,16.83
2018-01-10T12:12:08.635Z,17.33
2018-01-10T12:14:09.708Z,16.63
2018-01-10T12:16:10.667Z,17.23
2018-01-10T12:18:12.448Z,18.80
2018-01-10T12:20:13.511Z,16.60
2018-01-10T12:22:14.502Z,18.63
2018-01-10T12:24:15.503Z,18.87
2018-01-10T12:26:17.240Z,19.67
2018-01-10T12:28:18.184Z,18.30
2018-01-10T12:30:19.196Z,17.87
2018-01-10T12:32:20.949Z,17.10
2018-01-10T12:34:22.510Z,18.03
2018-01-10T12:36:23.806Z,18.57
2018-01-10T12:38:24.841Z,25.67
2018-01-10T12:40:25.791Z,31.67
2018-01-10T12:42:26.784Z,29.47
2018-01-10T12:44:27.731Z,29.93
2018-01-10T12:46:28.717Z,18.00
2018-01-10T12:48:29.687Z,17.17
2018-01-10T12:50:30.649Z,17.30
2018-01-10T12:52:31.608Z,16.97
2018-01-10T12:54:32.559Z,16.37
2018-01-10T12:56:33.546Z,16.60
2018-01-10T12:58:35.244Z,16.93
2018-01-10T13:00:36.259Z,17.17
2018-01-10T13:02:38.054Z,17.10
2018-01-10T13:04:39.125Z,15.97
2018-01-10T13:06:40.160Z,15.13
2018-01-10T13:08:41.211Z,16.10
2018-01-10T13:10:42.184Z,18.07
2018-01-10T13:12:43.211Z,17.10
2018-01-10T13:14:46.065Z,17.03
2018-01-10T13:16:47.117Z,16.20
2018-01-10T13:18:54.416Z,16.23
2018-01-10T13:23:02.078Z,15.90
2018-01-10T13:25:03.777Z,16.47
2018-01-10T13:27:04.732Z,16.50
2018-01-10T13:29:06.540Z,17.40
2018-01-10T13:31:07.535Z,16.50
2018-01-10T13:33:08.492Z,16.63
2018-01-10T13:35:10.208Z,15.83
2018-01-10T13:37:11.256Z,15.53
2018-01-10T13:39:12.263Z,15.23
2018-01-10T13:41:13.279Z,16.33
2018-01-10T13:43:14.260Z,15.30
2018-01-10T13:45:22.916Z,15.90
2018-01-10T13:47:24.196Z,16.77
2018-01-10T13:49:26.627Z,16.60
2018-01-10T13:51:30.607Z,16.07
2018-01-10T13:53:33.258Z,15.53
2018-01-10T13:55:35.099Z,16.40
2018-01-10T13:57:36.086Z,15.73
2018-01-10T13:59:39.945Z,17.30
2018-01-10T14:01:40.983Z,15.80
2018-01-10T14:03:43.617Z,16.27
2018-01-10T14:05:44.745Z,16.70
2018-01-10T14:07:45.730Z,16.93
2018-01-10T14:09:52.009Z,15.73
2018-01-10T14:11:53.843Z,15.47
2018-01-10T14:13:54.814Z,16.50
2018-01-10T14:15:55.805Z,16.20
2018-01-10T14:18:01.094Z,14.23
2018-01-10T14:20:02.263Z,14.50
2018-01-10T14:22:04.361Z,14.13
2018-01-10T14:24:06.915Z,14.17
2018-01-10T14:26:09.066Z,15.13
2018-01-10T14:28:10.130Z,14.87
2018-01-10T14:30:11.145Z,13.60
2018-01-10T14:32:12.851Z,15.10
2018-01-10T14:34:16.061Z,15.00
2018-01-10T14:36:17.117Z,14.57
2018-01-10T14:38:20.304Z,14.40
2018-01-10T14:40:21.381Z,14.33
2018-01-10T14:42:22.428Z,15.37
2018-01-10T14:44:23.406Z,16.83
2018-01-10T14:46:24.381Z,20.10
2018-01-10T14:48:26.184Z,20.73
2018-01-10T14:50:27.267Z,17.00
2018-01-10T14:52:29.143Z,17.57
2018-01-10T14:54:30.867Z,16.67
2018-01-10T14:56:32.480Z,17.17
2018-01-10T14:58:33.586Z,16.30
2018-01-10T15:00:34.547Z,14.37
2018-01-10T15:02:36.138Z,15.53
2018-01-10T15:04:37.183Z,16.23
2018-01-10T15:06:38.871Z,15.00
2018-01-10T15:08:45.308Z,15.00
2018-01-10T15:10:46.397Z,15.23
2018-01-10T15:12:47.692Z,15.10
2018-01-10T15:14:48.708Z,15.37
2018-01-10T15:16:49.700Z,14.23
2018-01-10T15:18:50.670Z,15.03
2018-01-10T15:20:53.882Z,16.07
2018-01-10T15:22:54.849Z,16.67
2018-01-10T15:24:57.671Z,17.33
2018-01-10T15:26:58.725Z,16.57
2018-01-10T15:28:59.656Z,17.93
2018-01-10T15:31:00.663Z,18.50
2018-01-10T15:33:02.377Z,19.50
2018-01-10T15:35:03.722Z,16.53
2018-01-10T15:37:05.210Z,16.83
2018-01-10T15:39:06.309Z,16.83
2018-01-10T15:41:07.329Z,16.60
2018-01-10T15:43:08.316Z,16.73
2018-01-10T15:45:09.317Z,14.60
2018-01-10T15:47:10.355Z,28.03
2018-01-10T15:49:11.336Z,21.00
2018-01-10T15:51:12.678Z,16.37
2018-01-10T15:53:13.688Z,15.03
2018-01-10T15:55:14.639Z,16.60
2018-01-10T15:57:15.607Z,15.53
2018-01-10T15:59:16.692Z,17.20
2018-01-10T16:01:17.644Z,20.07
2018-01-10T16:03:19.184Z,21.00
2018-01-10T16:05:20.259Z,18.77
2018-01-10T16:07:21.568Z,15.60
2018-01-10T16:09:22.611Z,15.90
2018-01-10T16:11:23.818Z,14.07
2018-01-10T16:13:24.830Z,14.80
2018-01-10T16:15:26.575Z,14.63
2018-01-10T16:17:27.774Z,13.60
2018-01-10T16:19:28.774Z,14.40
2018-01-10T16:21:29.876Z,13.97
2018-01-10T16:23:31.091Z,14.80
2018-01-10T16:25:32.203Z,14.10
2018-01-10T16:27:33.396Z,15.00
2018-01-10T16:29:34.490Z,15.47
2018-01-10T16:31:35.450Z,16.33
2018-01-10T16:33:36.543Z,14.17
2018-01-10T16:35:37.544Z,14.40
2018-01-10T16:37:38.555Z,13.97
2018-01-10T16:39:39.504Z,15.50
2018-01-10T16:41:40.833Z,13.80
2018-01-10T16:43:41.789Z,12.83
2018-01-10T16:45:42.752Z,13.63
2018-01-10T16:47:43.960Z,12.53
2018-01-10T16:49:44.907Z,14.13
2018-01-10T16:51:46.599Z,15.03
2018-01-10T16:53:47.685Z,13.27
2018-01-10T16:55:48.666Z,14.10
2018-01-10T16:57:49.843Z,16.83
2018-01-10T16:59:50.795Z,15.83
2018-01-10T17:01:51.873Z,13.10
2018-01-10T17:03:52.935Z,14.70
2018-01-10T17:05:54.083Z,14.50
2018-01-10T17:07:58.901Z,13.27
2018-01-10T17:09:59.915Z,14.07
2018-01-10T17:12:01.037Z,15.40
2018-01-10T17:14:02.232Z,16.33
2018-01-10T17:18:31.473Z,16.33
2018-01-10T17:23:00.764Z,17.50
2018-01-10T17:25:11.978Z,16.63
2018-01-10T17:27:13.238Z,19.53
2018-01-10T17:31:42.236Z,20.70
2018-01-10T17:33:43.232Z,29.27
2018-01-10T17:35:44.220Z,19.50
2018-01-10T17:37:45.196Z,18.50
2018-01-10T17:39:46.899Z,20.30
2018-01-10T17:41:47.887Z,16.27
2018-01-10T17:43:48.843Z,20.83
2018-01-10T17:45:49.812Z,20.77
2018-01-10T17:47:50.778Z,21.80
2018-01-10T17:49:52.890Z,22.57
2018-01-10T17:51:53.868Z,22.43
2018-01-10T17:53:54.835Z,22.37
2018-01-10T17:55:55.770Z,23.87
2018-01-10T17:57:56.706Z,24.60
2018-01-10T17:59:58.383Z,25.07
2018-01-10T18:01:59.351Z,29.33
2018-01-10T18:04:00.365Z,27.73
2018-01-10T18:06:01.540Z,29.40
2018-01-10T18:08:04.967Z,31.67
2018-01-10T18:10:08.094Z,28.80
2018-01-10T18:19:37.024Z,37.30
2018-01-10T18:21:38.049Z,42.53
2018-01-10T18:23:39.076Z,41.60
2018-01-10T18:25:40.083Z,34.80
2018-01-10T18:27:41.032Z,27.90
2018-01-10T18:29:42.056Z,26.03
2018-01-10T18:31:43.071Z,24.70
2018-01-10T18:33:44.084Z,20.80
2018-01-10T18:35:45.034Z,22.20
2018-01-10T18:37:47.042Z,22.03
2018-01-10T18:39:48.317Z,22.43
2018-01-10T18:41:49.307Z,19.73
2018-01-10T18:43:50.936Z,19.27
2018-01-10T18:46:06.801Z,20.80
2018-01-10T18:48:07.998Z,19.20
2018-01-10T18:50:09.072Z,19.10
2018-01-10T18:52:10.082Z,17.47
2018-01-10T18:54:11.076Z,18.87
2018-01-10T18:56:12.049Z,17.60
2018-01-10T18:58:16.701Z,18.80
2018-01-10T19:00:18.801Z,20.20
2018-01-10T19:02:20.437Z,16.90
2018-01-10T19:04:21.662Z,16.10
2018-01-10T19:06:26.370Z,15.63
2018-01-10T19:08:27.495Z,17.30
2018-01-10T19:10:31.321Z,17.03
2018-01-10T19:14:41.116Z,15.80
2018-01-10T19:16:42.161Z,15.93
2018-01-10T19:18:43.612Z,16.00
2018-01-10T19:20:44.750Z,17.93
2018-01-10T19:22:46.140Z,20.73
2018-01-10T19:24:47.204Z,21.87
2018-01-10T19:26:49.255Z,21.40
2018-01-10T19:29:11.761Z,20.43
2018-01-10T19:31:17.391Z,19.90
2018-01-10T19:33:18.457Z,19.90
2018-01-10T19:35:19.803Z,18.23
2018-01-10T19:37:20.894Z,18.83
2018-01-10T19:39:22.195Z,18.90
2018-01-10T19:41:24.165Z,20.47
2018-01-10T19:43:25.248Z,22.43
2018-01-10T19:45:27.104Z,21.07
2018-01-10T19:47:28.171Z,20.60
2018-01-10T19:49:29.388Z,19.10
2018-01-10T19:51:30.788Z,17.33
2018-01-10T19:53:31.847Z,14.97
2018-01-10T19:55:32.932Z,14.87
2018-01-10T19:57:34.209Z,14.70
2018-01-10T19:59:35.321Z,13.07
2018-01-10T20:01:36.428Z,13.73
2018-01-10T20:03:37.612Z,13.70
2018-01-10T20:05:39.358Z,12.50
2018-01-10T20:10:07.952Z,11.37
2018-01-10T20:12:09.384Z,12.00
2018-01-10T20:16:39.634Z,11.87
2018-01-10T20:18:40.802Z,14.53
2018-01-10T20:20:43.826Z,13.13
2018-01-10T20:22:51.368Z,12.20
2018-01-10T20:24:52.535Z,11.17
2018-01-10T20:27:03.681Z,13.30
2018-01-10T20:29:30.832Z,15.23
2018-01-10T20:31:34.009Z,16.23
2018-01-10T20:33:36.412Z,17.30
2018-01-10T20:38:30.723Z,19.77
2018-01-10T20:42:59.592Z,17.10
2018-01-10T20:45:20.481Z,15.73
2018-01-10T20:47:21.616Z,15.87
2018-01-10T20:49:22.818Z,16.90
2018-01-10T20:51:45.227Z,18.47
2018-01-10T20:53:46.434Z,16.80
2018-01-10T20:55:47.647Z,15.70
2018-01-10T20:58:26.681Z,18.20
2018-01-10T21:00:28.307Z,16.63
2018-01-10T21:02:39.405Z,15.47
2018-01-10T21:07:17.130Z,18.87
2018-01-10T21:09:18.172Z,19.50
2018-01-10T21:11:19.411Z,19.70
2018-01-10T21:13:20.539Z,19.10
2018-01-10T21:15:21.844Z,19.10
2018-01-10T21:17:23.857Z,17.67
2018-01-10T21:19:24.891Z,18.07
2018-01-10T21:21:25.911Z,20.47
2018-01-10T21:23:26.947Z,24.00
2018-01-10T21:25:28.080Z,27.83
2018-01-10T21:27:30.135Z,27.23
2018-01-10T21:29:56.932Z,23.00
2018-01-10T21:31:57.944Z,25.00
2018-01-10T21:33:58.901Z,24.20
2018-01-10T21:35:59.895Z,21.13
2018-01-10T21:38:00.874Z,21.00
2018-01-10T21:40:04.075Z,20.60
2018-01-10T21:42:06.270Z,19.33
2018-01-10T21:44:07.240Z,19.90
2018-01-10T21:46:08.215Z,19.10
2018-01-10T21:50:46.039Z,20.43
2018-01-10T21:52:47.039Z,19.90
2018-01-10T21:54:49.276Z,20.10
2018-01-10T21:56:50.707Z,18.70
2018-01-10T21:58:58.349Z,22.00
2018-01-10T22:01:00.376Z,26.70
2018-01-10T22:03:01.404Z,31.10
2018-01-10T22:05:02.384Z,28.83
2018-01-10T22:07:03.401Z,26.53
2018-01-10T22:09:04.416Z,23.67
2018-01-10T22:11:05.440Z,22.00
2018-01-10T22:13:06.449Z,22.57
2018-01-10T22:15:07.466Z,20.33
2018-01-10T22:17:08.467Z,19.97
2018-01-10T22:19:09.943Z,21.67
2018-01-10T22:21:28.748Z,20.43
2018-01-10T22:23:29.727Z,19.90
2018-01-10T22:27:50.956Z,18.90
2018-01-10T22:29:51.960Z,19.03
2018-01-10T22:31:58.672Z,17.67
2018-01-10T22:36:31.134Z,17.93
2018-01-10T22:38:32.137Z,18.73
2018-01-10T22:40:33.137Z,20.73
2018-01-10T22:42:34.860Z,19.50
2018-01-10T22:44:35.815Z,19.27
2018-01-10T22:46:36.767Z,18.60
2018-01-10T22:48:38.512Z,19.60
2018-01-10T22:50:39.556Z,19.53
2018-01-10T22:52:40.503Z,18.80
2018-01-10T22:54:41.445Z,17.77
2018-01-10T22:56:42.484Z,18.10
2018-01-10T22:58:43.518Z,19.87
2018-01-10T23:00:44.543Z,19.83
2018-01-10T23:02:46.333Z,18.33
2018-01-10T23:04:47.418Z,20.00
2018-01-10T23:06:48.426Z,18.00
2018-01-10T23:08:50.452Z,19.30
2018-01-10T23:10:51.655Z,19.07
2018-01-10T23:12:52.689Z,18.90
2018-01-10T23:14:53.735Z,19.10
2018-01-10T23:16:54.699Z,17.73
2018-01-10T23:18:55.738Z,20.57
2018-01-10T23:20:56.789Z,18.70
2018-01-10T23:22:57.809Z,17.00
2018-01-10T23:25:00.412Z,19.00
2018-01-10T23:27:03.556Z,20.77
2018-01-10T23:29:04.573Z,26.17
2018-01-10T23:31:07.682Z,21.83
2018-01-10T23:33:08.716Z,20.40
2018-01-10T23:35:09.698Z,20.53
2018-01-10T23:37:26.636Z,19.00
2018-01-10T23:39:28.453Z,20.93
2018-01-10T23:41:29.640Z,18.00
2018-01-10T23:43:30.713Z,18.63
2018-01-10T23:45:31.721Z,21.97
2018-01-10T23:47:32.673Z,20.73
2018-01-10T23:49:35.468Z,21.70
2018-01-10T23:51:36.520Z,21.90
2018-01-10T23:53:37.540Z,19.27
2018-01-10T23:55:38.504Z,20.20
2018-01-10T23:57:39.467Z,20.40
